sensor_id;sensor_type;location;lat;lon;timestamp;P1;durP1;ratioP1;P2;durP2;ratioP2
64339;SDS011;63709;53.258;-8.814;2022-11-20T00:03:36;38.40;;;5.35;;
64339;SDS011;63709;53.258;-8.814;2022-11-20T00:06:03;40.95;;;6.40;;
64339;SDS011;63709;53.258;-8.814;2022-11-20T00:08:31;35.05;;;4.78;;
64339;SDS011;63709;53.258;-8.814;2022-11-20T00:10:56;40.78;;;5.70;;
64339;SDS011;63709;53.258;-8.814;2022-11-20T00:13:23;42.72;;;5.10;;
64339;SDS011;63709;53.258;-8.814;2022-11-20T00:15:56;44.47;;;6.70;;
64339;SDS011;63709;53.258;-8.814;2022-11-20T00:18:22;48.05;;;6.05;;
64339;SDS011;63709;53.258;-8.814;2022-11-20T00:20:48;31.70;;;5.28;;
64339;SDS011;63709;53.258;-8.814;2022-11-20T00:23:20;36.05;;;5.43;;
64339;SDS011;63709;53.258;-8.814;2022-11-20T00:25:45;36.72;;;5.53;;
64339;SDS011;63709;53.258;-8.814;2022-11-20T00:28:11;28.52;;;4.65;;
64339;SDS011;63709;53.258;-8.814;2022-11-20T00:30:37;36.70;;;4.45;;
64339;SDS011;63709;53.258;-8.814;2022-11-20T00:33:03;30.98;;;4.50;;
64339;SDS011;63709;53.258;-8.814;2022-11-20T00:35:29;35.60;;;4.22;;
64339;SDS011;63709;53.258;-8.814;2022-11-20T00:40:20;28.80;;;4.18;;
64339;SDS011;63709;53.258;-8.814;2022-11-20T00:42:46;29.77;;;4.28;;
64339;SDS011;63709;53.258;-8.814;2022-11-20T00:45:11;24.38;;;3.72;;
64339;SDS011;63709;53.258;-8.814;2022-11-20T00:47:38;19.20;;;3.80;;
64339;SDS011;63709;53.258;-8.814;2022-11-20T00:50:04;25.63;;;3.50;;
64339;SDS011;63709;53.258;-8.814;2022-11-20T00:52:30;27.45;;;5.10;;
64339;SDS011;63709;53.258;-8.814;2022-11-20T00:54:58;31.38;;;4.00;;
64339;SDS011;63709;53.258;-8.814;2022-11-20T00:57:26;20.23;;;3.63;;
64339;SDS011;63709;53.258;-8.814;2022-11-20T00:59:52;22.15;;;3.83;;
64339;SDS011;63709;53.258;-8.814;2022-11-20T01:04:44;19.75;;;3.08;;
64339;SDS011;63709;53.258;-8.814;2022-11-20T01:07:10;17.08;;;3.10;;
64339;SDS011;63709;53.258;-8.814;2022-11-20T01:09:37;19.83;;;3.22;;
64339;SDS011;63709;53.258;-8.814;2022-11-20T01:12:04;19.88;;;3.22;;
64339;SDS011;63709;53.258;-8.814;2022-11-20T01:16:55;21.83;;;3.28;;
64339;SDS011;63709;53.258;-8.814;2022-11-20T01:19:21;25.08;;;3.33;;
64339;SDS011;63709;53.258;-8.814;2022-11-20T01:21:49;17.02;;;3.55;;
64339;SDS011;63709;53.258;-8.814;2022-11-20T01:24:17;22.33;;;4.72;;
64339;SDS011;63709;53.258;-8.814;2022-11-20T01:26:45;23.23;;;3.25;;
64339;SDS011;63709;53.258;-8.814;2022-11-20T01:29:15;20.60;;;3.38;;
64339;SDS011;63709;53.258;-8.814;2022-11-20T01:31:45;20.63;;;3.08;;
64339;SDS011;63709;53.258;-8.814;2022-11-20T01:34:11;23.55;;;3.75;;
64339;SDS011;63709;53.258;-8.814;2022-11-20T01:36:40;28.27;;;3.50;;
64339;SDS011;63709;53.258;-8.814;2022-11-20T01:39:10;24.67;;;3.13;;
64339;SDS011;63709;53.258;-8.814;2022-11-20T01:41:41;28.30;;;4.40;;
64339;SDS011;63709;53.258;-8.814;2022-11-20T01:47:16;23.63;;;3.55;;
64339;SDS011;63709;53.258;-8.814;2022-11-20T01:50:02;20.77;;;3.40;;
64339;SDS011;63709;53.258;-8.814;2022-11-20T01:55:07;23.73;;;3.28;;
64339;SDS011;63709;53.258;-8.814;2022-11-20T01:57:38;27.20;;;3.65;;
64339;SDS011;63709;53.258;-8.814;2022-11-20T02:00:08;18.23;;;2.95;;
64339;SDS011;63709;53.258;-8.814;2022-11-20T02:02:36;24.88;;;3.33;;
64339;SDS011;63709;53.258;-8.814;2022-11-20T02:05:09;27.63;;;4.65;;
64339;SDS011;63709;53.258;-8.814;2022-11-20T02:07:43;22.70;;;3.78;;
64339;SDS011;63709;53.258;-8.814;2022-11-20T02:10:11;28.35;;;3.55;;
64339;SDS011;63709;53.258;-8.814;2022-11-20T02:15:21;26.90;;;3.65;;
64339;SDS011;63709;53.258;-8.814;2022-11-20T02:17:47;27.13;;;4.68;;
64339;SDS011;63709;53.258;-8.814;2022-11-20T02:20:14;28.05;;;5.20;;
64339;SDS011;63709;53.258;-8.814;2022-11-20T02:22:47;29.23;;;6.07;;
64339;SDS011;63709;53.258;-8.814;2022-11-20T02:25:21;33.38;;;4.07;;
64339;SDS011;63709;53.258;-8.814;2022-11-20T02:27:50;38.10;;;5.13;;
64339;SDS011;63709;53.258;-8.814;2022-11-20T02:30:16;27.05;;;5.18;;
64339;SDS011;63709;53.258;-8.814;2022-11-20T02:32:42;27.58;;;4.40;;
64339;SDS011;63709;53.258;-8.814;2022-11-20T02:37:50;33.03;;;5.32;;
64339;SDS011;63709;53.258;-8.814;2022-11-20T02:40:19;48.30;;;5.57;;
64339;SDS011;63709;53.258;-8.814;2022-11-20T02:42:44;38.88;;;5.47;;
64339;SDS011;63709;53.258;-8.814;2022-11-20T02:45:10;33.55;;;4.47;;
64339;SDS011;63709;53.258;-8.814;2022-11-20T02:47:36;30.90;;;4.43;;
64339;SDS011;63709;53.258;-8.814;2022-11-20T02:50:03;43.13;;;5.75;;
64339;SDS011;63709;53.258;-8.814;2022-11-20T02:52:30;38.20;;;5.03;;
64339;SDS011;63709;53.258;-8.814;2022-11-20T02:59:51;39.05;;;4.90;;
64339;SDS011;63709;53.258;-8.814;2022-11-20T03:02:18;38.13;;;5.35;;
64339;SDS011;63709;53.258;-8.814;2022-11-20T03:04:44;29.88;;;4.35;;
64339;SDS011;63709;53.258;-8.814;2022-11-20T03:07:10;31.63;;;4.78;;
64339;SDS011;63709;53.258;-8.814;2022-11-20T03:09:37;25.55;;;4.53;;
64339;SDS011;63709;53.258;-8.814;2022-11-20T03:12:02;34.83;;;5.93;;
64339;SDS011;63709;53.258;-8.814;2022-11-20T03:14:29;28.90;;;4.43;;
64339;SDS011;63709;53.258;-8.814;2022-11-20T03:16:55;39.00;;;4.93;;
64339;SDS011;63709;53.258;-8.814;2022-11-20T03:19:21;23.52;;;4.53;;
64339;SDS011;63709;53.258;-8.814;2022-11-20T03:21:47;27.35;;;4.25;;
64339;SDS011;63709;53.258;-8.814;2022-11-20T03:24:13;30.50;;;4.65;;
64339;SDS011;63709;53.258;-8.814;2022-11-20T03:26:39;29.52;;;5.47;;
64339;SDS011;63709;53.258;-8.814;2022-11-20T03:29:05;23.58;;;4.35;;
64339;SDS011;63709;53.258;-8.814;2022-11-20T03:31:32;22.50;;;3.63;;
64339;SDS011;63709;53.258;-8.814;2022-11-20T03:34:00;31.02;;;4.70;;
64339;SDS011;63709;53.258;-8.814;2022-11-20T03:36:27;29.23;;;3.88;;
64339;SDS011;63709;53.258;-8.814;2022-11-20T03:38:54;24.00;;;4.10;;
64339;SDS011;63709;53.258;-8.814;2022-11-20T03:41:22;29.08;;;4.80;;
64339;SDS011;63709;53.258;-8.814;2022-11-20T03:43:50;22.27;;;3.60;;
64339;SDS011;63709;53.258;-8.814;2022-11-20T03:46:20;33.25;;;4.55;;
64339;SDS011;63709;53.258;-8.814;2022-11-20T03:48:47;26.15;;;3.50;;
64339;SDS011;63709;53.258;-8.814;2022-11-20T03:51:14;41.58;;;5.15;;
64339;SDS011;63709;53.258;-8.814;2022-11-20T03:53:42;20.92;;;4.88;;
64339;SDS011;63709;53.258;-8.814;2022-11-20T03:56:10;23.45;;;3.50;;
64339;SDS011;63709;53.258;-8.814;2022-11-20T03:58:38;32.03;;;5.00;;
64339;SDS011;63709;53.258;-8.814;2022-11-20T04:01:09;21.98;;;4.07;;
64339;SDS011;63709;53.258;-8.814;2022-11-20T04:03:40;40.08;;;5.00;;
64339;SDS011;63709;53.258;-8.814;2022-11-20T04:06:08;27.00;;;4.45;;
64339;SDS011;63709;53.258;-8.814;2022-11-20T04:08:36;28.33;;;4.45;;
64339;SDS011;63709;53.258;-8.814;2022-11-20T04:11:09;19.33;;;4.63;;
64339;SDS011;63709;53.258;-8.814;2022-11-20T04:13:38;31.10;;;3.85;;
64339;SDS011;63709;53.258;-8.814;2022-11-20T04:16:05;22.13;;;2.97;;
64339;SDS011;63709;53.258;-8.814;2022-11-20T04:18:32;24.63;;;4.43;;
64339;SDS011;63709;53.258;-8.814;2022-11-20T04:20:58;21.63;;;3.50;;
64339;SDS011;63709;53.258;-8.814;2022-11-20T04:23:24;17.02;;;3.15;;
64339;SDS011;63709;53.258;-8.814;2022-11-20T04:28:17;22.35;;;3.00;;
64339;SDS011;63709;53.258;-8.814;2022-11-20T04:30:43;20.38;;;3.53;;
64339;SDS011;63709;53.258;-8.814;2022-11-20T04:33:09;24.30;;;3.42;;
64339;SDS011;63709;53.258;-8.814;2022-11-20T04:35:35;23.13;;;4.30;;
64339;SDS011;63709;53.258;-8.814;2022-11-20T04:38:03;23.05;;;3.53;;
64339;SDS011;63709;53.258;-8.814;2022-11-20T04:40:29;27.15;;;3.53;;
64339;SDS011;63709;53.258;-8.814;2022-11-20T04:42:55;30.02;;;3.08;;
64339;SDS011;63709;53.258;-8.814;2022-11-20T04:45:23;25.83;;;3.97;;
64339;SDS011;63709;53.258;-8.814;2022-11-20T04:47:50;22.58;;;3.95;;
64339;SDS011;63709;53.258;-8.814;2022-11-20T04:50:15;24.33;;;4.95;;
64339;SDS011;63709;53.258;-8.814;2022-11-20T04:52:41;25.63;;;3.17;;
64339;SDS011;63709;53.258;-8.814;2022-11-20T04:55:07;19.20;;;3.30;;
64339;SDS011;63709;53.258;-8.814;2022-11-20T04:57:34;32.85;;;5.28;;
64339;SDS011;63709;53.258;-8.814;2022-11-20T05:00:06;24.90;;;4.85;;
64339;SDS011;63709;53.258;-8.814;2022-11-20T05:02:33;31.88;;;3.47;;
64339;SDS011;63709;53.258;-8.814;2022-11-20T05:04:59;33.90;;;4.78;;
64339;SDS011;63709;53.258;-8.814;2022-11-20T05:07:25;23.48;;;3.53;;
64339;SDS011;63709;53.258;-8.814;2022-11-20T05:09:51;24.38;;;4.10;;
64339;SDS011;63709;53.258;-8.814;2022-11-20T05:12:17;26.40;;;3.30;;
64339;SDS011;63709;53.258;-8.814;2022-11-20T05:14:43;38.45;;;3.67;;
64339;SDS011;63709;53.258;-8.814;2022-11-20T05:17:11;25.70;;;3.88;;
64339;SDS011;63709;53.258;-8.814;2022-11-20T05:19:37;27.75;;;4.05;;
64339;SDS011;63709;53.258;-8.814;2022-11-20T05:22:04;30.17;;;4.30;;
64339;SDS011;63709;53.258;-8.814;2022-11-20T05:24:30;32.58;;;4.85;;
64339;SDS011;63709;53.258;-8.814;2022-11-20T05:26:56;18.48;;;3.38;;
64339;SDS011;63709;53.258;-8.814;2022-11-20T05:29:27;37.58;;;4.97;;
64339;SDS011;63709;53.258;-8.814;2022-11-20T05:31:53;21.02;;;3.50;;
64339;SDS011;63709;53.258;-8.814;2022-11-20T05:34:19;22.42;;;3.25;;
64339;SDS011;63709;53.258;-8.814;2022-11-20T05:36:45;23.52;;;4.10;;
64339;SDS011;63709;53.258;-8.814;2022-11-20T05:39:11;24.73;;;4.03;;
64339;SDS011;63709;53.258;-8.814;2022-11-20T05:41:37;31.95;;;5.18;;
64339;SDS011;63709;53.258;-8.814;2022-11-20T05:44:02;31.95;;;4.50;;
64339;SDS011;63709;53.258;-8.814;2022-11-20T05:46:29;35.83;;;5.07;;
64339;SDS011;63709;53.258;-8.814;2022-11-20T05:48:55;31.85;;;4.55;;
64339;SDS011;63709;53.258;-8.814;2022-11-20T05:51:22;22.52;;;3.85;;
64339;SDS011;63709;53.258;-8.814;2022-11-20T05:53:48;26.90;;;4.18;;
64339;SDS011;63709;53.258;-8.814;2022-11-20T05:56:18;35.42;;;4.60;;
64339;SDS011;63709;53.258;-8.814;2022-11-20T05:58:45;37.95;;;4.20;;
64339;SDS011;63709;53.258;-8.814;2022-11-20T06:03:55;29.85;;;4.03;;
64339;SDS011;63709;53.258;-8.814;2022-11-20T06:06:21;27.33;;;3.65;;
64339;SDS011;63709;53.258;-8.814;2022-11-20T06:08:47;27.48;;;5.85;;
64339;SDS011;63709;53.258;-8.814;2022-11-20T06:13:39;22.27;;;3.33;;
64339;SDS011;63709;53.258;-8.814;2022-11-20T06:18:32;30.83;;;4.00;;
64339;SDS011;63709;53.258;-8.814;2022-11-20T06:21:08;19.27;;;4.28;;
64339;SDS011;63709;53.258;-8.814;2022-11-20T06:23:40;20.60;;;3.53;;
64339;SDS011;63709;53.258;-8.814;2022-11-20T06:26:10;26.13;;;3.20;;
64339;SDS011;63709;53.258;-8.814;2022-11-20T06:28:37;17.80;;;2.83;;
64339;SDS011;63709;53.258;-8.814;2022-11-20T06:31:04;18.48;;;3.45;;
64339;SDS011;63709;53.258;-8.814;2022-11-20T06:33:31;23.05;;;3.47;;
64339;SDS011;63709;53.258;-8.814;2022-11-20T06:35:57;13.32;;;2.78;;
64339;SDS011;63709;53.258;-8.814;2022-11-20T06:38:24;16.23;;;2.80;;
64339;SDS011;63709;53.258;-8.814;2022-11-20T06:40:50;22.25;;;3.67;;
64339;SDS011;63709;53.258;-8.814;2022-11-20T06:43:16;19.73;;;3.30;;
64339;SDS011;63709;53.258;-8.814;2022-11-20T06:45:42;13.80;;;2.92;;
64339;SDS011;63709;53.258;-8.814;2022-11-20T06:48:09;21.08;;;3.60;;
64339;SDS011;63709;53.258;-8.814;2022-11-20T06:50:36;13.77;;;2.60;;
64339;SDS011;63709;53.258;-8.814;2022-11-20T06:53:02;13.90;;;3.13;;
64339;SDS011;63709;53.258;-8.814;2022-11-20T06:55:29;21.00;;;2.80;;
64339;SDS011;63709;53.258;-8.814;2022-11-20T06:57:56;16.02;;;2.65;;
64339;SDS011;63709;53.258;-8.814;2022-11-20T07:00:22;13.85;;;2.47;;
64339;SDS011;63709;53.258;-8.814;2022-11-20T07:02:48;21.13;;;3.30;;
64339;SDS011;63709;53.258;-8.814;2022-11-20T07:07:40;13.48;;;2.63;;
64339;SDS011;63709;53.258;-8.814;2022-11-20T07:10:06;16.55;;;3.25;;
64339;SDS011;63709;53.258;-8.814;2022-11-20T07:12:32;19.20;;;2.88;;
64339;SDS011;63709;53.258;-8.814;2022-11-20T07:14:58;20.52;;;2.83;;
64339;SDS011;63709;53.258;-8.814;2022-11-20T07:17:24;13.95;;;2.38;;
64339;SDS011;63709;53.258;-8.814;2022-11-20T07:19:50;12.95;;;3.53;;
64339;SDS011;63709;53.258;-8.814;2022-11-20T07:22:16;14.20;;;2.40;;
64339;SDS011;63709;53.258;-8.814;2022-11-20T07:24:42;11.68;;;1.90;;
64339;SDS011;63709;53.258;-8.814;2022-11-20T07:27:07;15.70;;;2.47;;
64339;SDS011;63709;53.258;-8.814;2022-11-20T07:29:34;12.32;;;2.20;;
64339;SDS011;63709;53.258;-8.814;2022-11-20T07:32:00;9.27;;;1.83;;
64339;SDS011;63709;53.258;-8.814;2022-11-20T07:34:26;16.42;;;3.13;;
64339;SDS011;63709;53.258;-8.814;2022-11-20T07:36:52;11.27;;;1.92;;
64339;SDS011;63709;53.258;-8.814;2022-11-20T07:39:18;13.18;;;2.50;;
64339;SDS011;63709;53.258;-8.814;2022-11-20T07:41:44;11.65;;;2.08;;
64339;SDS011;63709;53.258;-8.814;2022-11-20T07:44:10;14.82;;;2.20;;
64339;SDS011;63709;53.258;-8.814;2022-11-20T07:46:36;10.38;;;2.05;;
64339;SDS011;63709;53.258;-8.814;2022-11-20T07:49:02;11.63;;;2.40;;
64339;SDS011;63709;53.258;-8.814;2022-11-20T07:51:28;13.60;;;2.25;;
64339;SDS011;63709;53.258;-8.814;2022-11-20T07:56:20;18.33;;;2.60;;
64339;SDS011;63709;53.258;-8.814;2022-11-20T07:58:47;12.80;;;2.28;;
64339;SDS011;63709;53.258;-8.814;2022-11-20T08:01:13;15.63;;;2.25;;
64339;SDS011;63709;53.258;-8.814;2022-11-20T08:03:39;25.52;;;4.03;;
64339;SDS011;63709;53.258;-8.814;2022-11-20T08:06:05;17.27;;;2.22;;
64339;SDS011;63709;53.258;-8.814;2022-11-20T08:08:31;15.10;;;2.50;;
64339;SDS011;63709;53.258;-8.814;2022-11-20T08:10:57;8.60;;;2.05;;
64339;SDS011;63709;53.258;-8.814;2022-11-20T08:13:43;12.27;;;1.90;;
64339;SDS011;63709;53.258;-8.814;2022-11-20T08:16:28;10.10;;;1.88;;
64339;SDS011;63709;53.258;-8.814;2022-11-20T08:18:54;5.88;;;1.27;;
64339;SDS011;63709;53.258;-8.814;2022-11-20T08:23:45;7.45;;;1.48;;
64339;SDS011;63709;53.258;-8.814;2022-11-20T08:26:11;6.03;;;1.48;;
64339;SDS011;63709;53.258;-8.814;2022-11-20T08:28:37;1.70;;;0.70;;
64339;SDS011;63709;53.258;-8.814;2022-11-20T08:31:03;4.72;;;0.82;;
64339;SDS011;63709;53.258;-8.814;2022-11-20T08:33:30;2.83;;;0.75;;
64339;SDS011;63709;53.258;-8.814;2022-11-20T08:36:03;4.50;;;1.50;;
64339;SDS011;63709;53.258;-8.814;2022-11-20T08:38:31;5.78;;;0.70;;
64339;SDS011;63709;53.258;-8.814;2022-11-20T08:40:57;2.13;;;0.55;;
64339;SDS011;63709;53.258;-8.814;2022-11-20T08:43:46;3.67;;;0.77;;
64339;SDS011;63709;53.258;-8.814;2022-11-20T08:46:12;3.83;;;1.45;;
64339;SDS011;63709;53.258;-8.814;2022-11-20T08:48:38;2.30;;;0.70;;
64339;SDS011;63709;53.258;-8.814;2022-11-20T08:51:06;4.30;;;0.85;;
64339;SDS011;63709;53.258;-8.814;2022-11-20T08:53:32;4.45;;;0.98;;
64339;SDS011;63709;53.258;-8.814;2022-11-20T08:55:58;5.00;;;0.88;;
64339;SDS011;63709;53.258;-8.814;2022-11-20T08:58:24;8.07;;;1.45;;
64339;SDS011;63709;53.258;-8.814;2022-11-20T09:00:51;7.03;;;0.98;;
64339;SDS011;63709;53.258;-8.814;2022-11-20T09:05:43;5.30;;;1.30;;
64339;SDS011;63709;53.258;-8.814;2022-11-20T09:08:09;5.32;;;1.23;;
64339;SDS011;63709;53.258;-8.814;2022-11-20T09:10:35;3.58;;;1.35;;
64339;SDS011;63709;53.258;-8.814;2022-11-20T09:13:02;10.68;;;1.65;;
64339;SDS011;63709;53.258;-8.814;2022-11-20T09:17:57;8.60;;;1.30;;
64339;SDS011;63709;53.258;-8.814;2022-11-20T09:20:25;8.15;;;1.00;;
64339;SDS011;63709;53.258;-8.814;2022-11-20T09:22:54;9.38;;;1.35;;
64339;SDS011;63709;53.258;-8.814;2022-11-20T09:25:20;10.27;;;1.50;;
64339;SDS011;63709;53.258;-8.814;2022-11-20T09:27:46;5.28;;;1.05;;
64339;SDS011;63709;53.258;-8.814;2022-11-20T09:30:13;8.38;;;1.35;;
64339;SDS011;63709;53.258;-8.814;2022-11-20T09:32:41;6.63;;;1.20;;
64339;SDS011;63709;53.258;-8.814;2022-11-20T09:35:08;8.50;;;1.20;;
64339;SDS011;63709;53.258;-8.814;2022-11-20T09:37:34;6.47;;;1.50;;
64339;SDS011;63709;53.258;-8.814;2022-11-20T09:40:00;11.73;;;1.42;;
64339;SDS011;63709;53.258;-8.814;2022-11-20T09:56:00;9.10;;;1.80;;
64339;SDS011;63709;53.258;-8.814;2022-11-20T09:58:33;11.43;;;1.58;;
64339;SDS011;63709;53.258;-8.814;2022-11-20T10:06:30;12.30;;;2.40;;
64339;SDS011;63709;53.258;-8.814;2022-11-20T10:09:03;10.18;;;2.13;;
64339;SDS011;63709;53.258;-8.814;2022-11-20T10:17:02;15.82;;;2.97;;
64339;SDS011;63709;53.258;-8.814;2022-11-20T10:19:42;17.27;;;2.30;;
64339;SDS011;63709;53.258;-8.814;2022-11-20T10:22:17;19.58;;;3.55;;
64339;SDS011;63709;53.258;-8.814;2022-11-20T10:27:56;13.77;;;2.60;;
64339;SDS011;63709;53.258;-8.814;2022-11-20T10:33:17;14.00;;;1.98;;
64339;SDS011;63709;53.258;-8.814;2022-11-20T10:35:57;12.95;;;2.13;;
64339;SDS011;63709;53.258;-8.814;2022-11-20T10:38:41;8.23;;;2.05;;
64339;SDS011;63709;53.258;-8.814;2022-11-20T10:41:13;12.70;;;2.40;;
64339;SDS011;63709;53.258;-8.814;2022-11-20T10:44:12;12.07;;;2.38;;
64339;SDS011;63709;53.258;-8.814;2022-11-20T10:47:04;13.95;;;2.10;;
64339;SDS011;63709;53.258;-8.814;2022-11-20T10:49:31;9.85;;;2.50;;
64339;SDS011;63709;53.258;-8.814;2022-11-20T10:57:51;19.52;;;1.90;;
64339;SDS011;63709;53.258;-8.814;2022-11-20T11:00:11;6.35;;;1.55;;
64339;SDS011;63709;53.258;-8.814;2022-11-20T11:02:39;11.10;;;2.25;;
64339;SDS011;63709;53.258;-8.814;2022-11-20T11:07:48;6.35;;;1.45;;
64339;SDS011;63709;53.258;-8.814;2022-11-20T11:10:18;9.85;;;1.50;;
64339;SDS011;63709;53.258;-8.814;2022-11-20T11:12:50;5.15;;;1.13;;
64339;SDS011;63709;53.258;-8.814;2022-11-20T11:18:10;5.95;;;0.90;;
64339;SDS011;63709;53.258;-8.814;2022-11-20T11:20:36;5.47;;;0.90;;
64339;SDS011;63709;53.258;-8.814;2022-11-20T11:23:03;4.78;;;1.10;;
64339;SDS011;63709;53.258;-8.814;2022-11-20T11:25:36;5.47;;;1.17;;
64339;SDS011;63709;53.258;-8.814;2022-11-20T11:28:21;5.88;;;1.00;;
64339;SDS011;63709;53.258;-8.814;2022-11-20T11:30:51;4.07;;;0.75;;
64339;SDS011;63709;53.258;-8.814;2022-11-20T11:33:20;2.88;;;1.05;;
64339;SDS011;63709;53.258;-8.814;2022-11-20T11:36:01;6.07;;;1.20;;
64339;SDS011;63709;53.258;-8.814;2022-11-20T11:40:59;4.72;;;0.90;;
64339;SDS011;63709;53.258;-8.814;2022-11-20T11:43:28;3.55;;;0.93;;
64339;SDS011;63709;53.258;-8.814;2022-11-20T11:46:23;3.63;;;0.95;;
64339;SDS011;63709;53.258;-8.814;2022-11-20T11:51:25;5.07;;;1.45;;
64339;SDS011;63709;53.258;-8.814;2022-11-20T11:53:57;5.03;;;1.08;;
64339;SDS011;63709;53.258;-8.814;2022-11-20T11:56:26;6.20;;;1.23;;
64339;SDS011;63709;53.258;-8.814;2022-11-20T11:58:53;6.15;;;1.30;;
64339;SDS011;63709;53.258;-8.814;2022-11-20T12:06:29;7.50;;;1.20;;
64339;SDS011;63709;53.258;-8.814;2022-11-20T12:09:02;3.65;;;1.10;;
64339;SDS011;63709;53.258;-8.814;2022-11-20T12:14:13;8.07;;;1.45;;
64339;SDS011;63709;53.258;-8.814;2022-11-20T12:16:49;29.02;;;5.50;;
64339;SDS011;63709;53.258;-8.814;2022-11-20T12:19:17;7.75;;;1.50;;
64339;SDS011;63709;53.258;-8.814;2022-11-20T12:21:58;37.63;;;7.93;;
64339;SDS011;63709;53.258;-8.814;2022-11-20T12:29:51;9.77;;;2.70;;
64339;SDS011;63709;53.258;-8.814;2022-11-20T12:41:31;8.75;;;1.73;;
64339;SDS011;63709;53.258;-8.814;2022-11-20T12:44:29;10.07;;;2.40;;
64339;SDS011;63709;53.258;-8.814;2022-11-20T12:47:24;14.27;;;2.58;;
64339;SDS011;63709;53.258;-8.814;2022-11-20T12:50:00;15.48;;;2.88;;
64339;SDS011;63709;53.258;-8.814;2022-11-20T13:01:07;10.32;;;1.95;;
64339;SDS011;63709;53.258;-8.814;2022-11-20T13:04:24;7.85;;;1.33;;
64339;SDS011;63709;53.258;-8.814;2022-11-20T13:07:29;9.20;;;1.90;;
64339;SDS011;63709;53.258;-8.814;2022-11-20T13:09:57;10.77;;;1.70;;
64339;SDS011;63709;53.258;-8.814;2022-11-20T13:18:00;10.27;;;2.08;;
64339;SDS011;63709;53.258;-8.814;2022-11-20T13:20:28;7.80;;;1.30;;
64339;SDS011;63709;53.258;-8.814;2022-11-20T13:22:56;10.68;;;1.67;;
64339;SDS011;63709;53.258;-8.814;2022-11-20T13:25:29;12.32;;;1.90;;
64339;SDS011;63709;53.258;-8.814;2022-11-20T13:27:59;6.75;;;1.67;;
64339;SDS011;63709;53.258;-8.814;2022-11-20T13:30:50;10.43;;;1.90;;
64339;SDS011;63709;53.258;-8.814;2022-11-20T13:33:29;11.65;;;2.13;;
64339;SDS011;63709;53.258;-8.814;2022-11-20T13:41:34;9.15;;;1.58;;
64339;SDS011;63709;53.258;-8.814;2022-11-20T13:46:47;9.45;;;2.20;;
64339;SDS011;63709;53.258;-8.814;2022-11-20T14:00:19;21.70;;;2.50;;
64339;SDS011;63709;53.258;-8.814;2022-11-20T14:03:08;16.50;;;2.50;;
64339;SDS011;63709;53.258;-8.814;2022-11-20T14:05:50;33.47;;;3.78;;
64339;SDS011;63709;53.258;-8.814;2022-11-20T14:08:40;9.98;;;1.60;;
64339;SDS011;63709;53.258;-8.814;2022-11-20T14:16:44;13.18;;;2.10;;
64339;SDS011;63709;53.258;-8.814;2022-11-20T14:21:46;9.02;;;1.50;;
64339;SDS011;63709;53.258;-8.814;2022-11-20T14:24:21;15.15;;;2.10;;
64339;SDS011;63709;53.258;-8.814;2022-11-20T14:26:48;13.60;;;1.90;;
64339;SDS011;63709;53.258;-8.814;2022-11-20T14:29:18;10.50;;;1.85;;
64339;SDS011;63709;53.258;-8.814;2022-11-20T14:31:50;13.10;;;1.90;;
64339;SDS011;63709;53.258;-8.814;2022-11-20T14:34:19;6.70;;;1.65;;
64339;SDS011;63709;53.258;-8.814;2022-11-20T14:36:47;7.60;;;1.20;;
64339;SDS011;63709;53.258;-8.814;2022-11-20T14:39:21;9.57;;;1.65;;
64339;SDS011;63709;53.258;-8.814;2022-11-20T14:41:53;7.18;;;1.48;;
64339;SDS011;63709;53.258;-8.814;2022-11-20T14:44:34;9.45;;;1.75;;
64339;SDS011;63709;53.258;-8.814;2022-11-20T14:47:01;15.13;;;2.63;;
64339;SDS011;63709;53.258;-8.814;2022-11-20T14:49:29;15.80;;;2.05;;
64339;SDS011;63709;53.258;-8.814;2022-11-20T14:52:00;7.88;;;1.98;;
64339;SDS011;63709;53.258;-8.814;2022-11-20T14:54:44;10.55;;;2.10;;
64339;SDS011;63709;53.258;-8.814;2022-11-20T14:57:31;12.68;;;2.20;;
64339;SDS011;63709;53.258;-8.814;2022-11-20T15:02:32;13.38;;;2.08;;
64339;SDS011;63709;53.258;-8.814;2022-11-20T15:04:59;11.00;;;1.85;;
64339;SDS011;63709;53.258;-8.814;2022-11-20T15:07:32;22.83;;;3.85;;
64339;SDS011;63709;53.258;-8.814;2022-11-20T15:10:07;13.20;;;2.63;;
64339;SDS011;63709;53.258;-8.814;2022-11-20T15:12:37;15.60;;;3.35;;
64339;SDS011;63709;53.258;-8.814;2022-11-20T15:15:09;16.63;;;2.72;;
64339;SDS011;63709;53.258;-8.814;2022-11-20T15:17:37;6.55;;;2.30;;
64339;SDS011;63709;53.258;-8.814;2022-11-20T15:20:08;15.52;;;3.05;;
64339;SDS011;63709;53.258;-8.814;2022-11-20T15:22:38;14.55;;;2.33;;
64339;SDS011;63709;53.258;-8.814;2022-11-20T15:25:10;23.13;;;3.42;;
64339;SDS011;63709;53.258;-8.814;2022-11-20T15:27:41;18.50;;;2.70;;
64339;SDS011;63709;53.258;-8.814;2022-11-20T15:30:13;22.60;;;2.70;;
64339;SDS011;63709;53.258;-8.814;2022-11-20T15:32:44;20.83;;;2.90;;
64339;SDS011;63709;53.258;-8.814;2022-11-20T15:35:11;20.38;;;3.33;;
64339;SDS011;63709;53.258;-8.814;2022-11-20T15:37:39;17.90;;;3.13;;
64339;SDS011;63709;53.258;-8.814;2022-11-20T15:40:06;24.40;;;2.85;;
64339;SDS011;63709;53.258;-8.814;2022-11-20T15:42:34;21.10;;;3.35;;
64339;SDS011;63709;53.258;-8.814;2022-11-20T15:45:00;20.33;;;2.90;;
64339;SDS011;63709;53.258;-8.814;2022-11-20T15:47:29;17.20;;;2.70;;
64339;SDS011;63709;53.258;-8.814;2022-11-20T15:49:57;16.77;;;2.90;;
64339;SDS011;63709;53.258;-8.814;2022-11-20T15:52:25;18.00;;;3.45;;
64339;SDS011;63709;53.258;-8.814;2022-11-20T15:54:50;23.35;;;4.55;;
64339;SDS011;63709;53.258;-8.814;2022-11-20T15:57:16;15.48;;;3.20;;
64339;SDS011;63709;53.258;-8.814;2022-11-20T15:59:42;16.60;;;3.45;;
64339;SDS011;63709;53.258;-8.814;2022-11-20T16:02:09;23.17;;;4.70;;
64339;SDS011;63709;53.258;-8.814;2022-11-20T16:04:36;27.13;;;5.10;;
64339;SDS011;63709;53.258;-8.814;2022-11-20T16:07:02;22.75;;;3.50;;
64339;SDS011;63709;53.258;-8.814;2022-11-20T16:09:28;22.15;;;3.60;;
64339;SDS011;63709;53.258;-8.814;2022-11-20T16:14:21;16.95;;;2.42;;
64339;SDS011;63709;53.258;-8.814;2022-11-20T16:17:06;13.13;;;2.47;;
64339;SDS011;63709;53.258;-8.814;2022-11-20T16:19:32;14.70;;;2.50;;
64339;SDS011;63709;53.258;-8.814;2022-11-20T16:21:58;10.32;;;2.22;;
64339;SDS011;63709;53.258;-8.814;2022-11-20T16:24:26;13.43;;;2.55;;
64339;SDS011;63709;53.258;-8.814;2022-11-20T16:26:55;15.25;;;4.45;;
64339;SDS011;63709;53.258;-8.814;2022-11-20T16:29:22;16.52;;;4.60;;
64339;SDS011;63709;53.258;-8.814;2022-11-20T16:34:14;16.77;;;3.28;;
64339;SDS011;63709;53.258;-8.814;2022-11-20T16:36:43;16.00;;;2.53;;
64339;SDS011;63709;53.258;-8.814;2022-11-20T16:39:10;12.00;;;2.60;;
64339;SDS011;63709;53.258;-8.814;2022-11-20T16:41:36;7.80;;;2.28;;
64339;SDS011;63709;53.258;-8.814;2022-11-20T16:44:06;15.95;;;5.00;;
64339;SDS011;63709;53.258;-8.814;2022-11-20T16:49:04;22.98;;;4.97;;
64339;SDS011;63709;53.258;-8.814;2022-11-20T16:51:34;14.07;;;4.95;;
64339;SDS011;63709;53.258;-8.814;2022-11-20T16:54:01;14.00;;;4.70;;
64339;SDS011;63709;53.258;-8.814;2022-11-20T16:56:35;17.85;;;5.72;;
64339;SDS011;63709;53.258;-8.814;2022-11-20T16:59:01;16.23;;;5.60;;
64339;SDS011;63709;53.258;-8.814;2022-11-20T17:01:29;16.63;;;5.10;;
64339;SDS011;63709;53.258;-8.814;2022-11-20T17:03:56;19.13;;;6.22;;
64339;SDS011;63709;53.258;-8.814;2022-11-20T17:06:29;9.25;;;4.00;;
64339;SDS011;63709;53.258;-8.814;2022-11-20T17:08:59;17.25;;;4.75;;
64339;SDS011;63709;53.258;-8.814;2022-11-20T17:11:25;17.45;;;4.32;;
64339;SDS011;63709;53.258;-8.814;2022-11-20T17:13:53;11.18;;;3.70;;
64339;SDS011;63709;53.258;-8.814;2022-11-20T17:16:21;16.35;;;3.60;;
64339;SDS011;63709;53.258;-8.814;2022-11-20T17:18:48;13.65;;;4.68;;
64339;SDS011;63709;53.258;-8.814;2022-11-20T17:21:15;17.20;;;3.65;;
64339;SDS011;63709;53.258;-8.814;2022-11-20T17:23:42;18.45;;;4.00;;